Main page
METAR-TAF:

METAR-TAF

Airports :

Ivato International Airport

Antananarivo, Madagascar

latitude: 18-48S, longitude: 047-29E, elevation: 1279 m

Current weather observation

The report was made 18 minutes ago, at 07:30 UTC
Wind 10 kt from the South/Southeast, varying between East/Southeast and South
Temperature 19°C
Humidity 49%
Pressure 1024 hPa
Visibility 10 km or more
Few clouds at a height of 2300 ft

METAR: FMMI 180730Z 15010KT 120V190 9999 FEW023 19/08 Q1024 NOSIG

Time: 10:48 (07:48 UTC)

Forecast

The report was made 2 hours and 48 minutes ago, at 05:00 UTC
Forecast valid from 18 at 06 UTC to 19 at 12 UTC
Wind 8 kt from the East/Southeast
Visibility 10 km or more
Few clouds at a height of 2000 ft

TAF: FMMI 180500Z 1806/1912 12008KT 9999 FEW020

Weather observations and forecasts of more than 4000 airports (METAR and TAF reports).

The available stations are represented by yellow and red dots on the map.

Hover mouse over dot to see the name of the station.

Then click to see weather observations and forecasts.

To change the map : click on the green buttons with a black cross to zoom in, on the green button with a dash to zoom out, or on the green arrows for adjacent maps.


METAR-TAF: